sensor_id;sensor_type;location;lat;lon;timestamp;P1;durP1;ratioP1;P2;durP2;ratioP2
8339;SDS011;4207;49.314;7.162;2024-02-21T00:00:19;6.20;;;2.97;;
8339;SDS011;4207;49.314;7.162;2024-02-21T00:02:47;6.43;;;2.83;;
8339;SDS011;4207;49.314;7.162;2024-02-21T00:05:15;7.38;;;2.38;;
8339;SDS011;4207;49.314;7.162;2024-02-21T00:07:42;9.80;;;3.28;;
8339;SDS011;4207;49.314;7.162;2024-02-21T00:10:12;4.45;;;1.98;;
8339;SDS011;4207;49.314;7.162;2024-02-21T00:12:40;7.55;;;2.67;;
8339;SDS011;4207;49.314;7.162;2024-02-21T00:15:08;5.38;;;2.85;;
8339;SDS011;4207;49.314;7.162;2024-02-21T00:17:36;7.32;;;2.55;;
8339;SDS011;4207;49.314;7.162;2024-02-21T00:20:04;6.18;;;2.30;;
8339;SDS011;4207;49.314;7.162;2024-02-21T00:22:33;6.90;;;3.13;;
8339;SDS011;4207;49.314;7.162;2024-02-21T00:25:01;4.20;;;2.53;;
8339;SDS011;4207;49.314;7.162;2024-02-21T00:27:30;5.78;;;2.53;;
8339;SDS011;4207;49.314;7.162;2024-02-21T00:29:58;4.80;;;2.28;;
8339;SDS011;4207;49.314;7.162;2024-02-21T00:32:26;7.03;;;2.83;;
8339;SDS011;4207;49.314;7.162;2024-02-21T00:34:54;7.40;;;3.70;;
8339;SDS011;4207;49.314;7.162;2024-02-21T00:37:22;3.90;;;2.13;;
8339;SDS011;4207;49.314;7.162;2024-02-21T00:39:49;3.90;;;2.17;;
8339;SDS011;4207;49.314;7.162;2024-02-21T00:42:17;8.93;;;2.92;;
8339;SDS011;4207;49.314;7.162;2024-02-21T00:44:46;3.95;;;2.50;;
8339;SDS011;4207;49.314;7.162;2024-02-21T00:47:14;8.05;;;2.75;;
8339;SDS011;4207;49.314;7.162;2024-02-21T00:49:44;6.30;;;2.80;;
8339;SDS011;4207;49.314;7.162;2024-02-21T00:52:12;5.50;;;2.75;;
8339;SDS011;4207;49.314;7.162;2024-02-21T00:54:40;7.03;;;2.55;;
8339;SDS011;4207;49.314;7.162;2024-02-21T00:57:18;8.30;;;2.97;;
8339;SDS011;4207;49.314;7.162;2024-02-21T00:59:48;4.90;;;2.85;;
8339;SDS011;4207;49.314;7.162;2024-02-21T01:02:15;3.90;;;2.33;;
8339;SDS011;4207;49.314;7.162;2024-02-21T01:04:43;4.45;;;2.47;;
8339;SDS011;4207;49.314;7.162;2024-02-21T01:07:11;5.03;;;2.42;;
8339;SDS011;4207;49.314;7.162;2024-02-21T01:09:39;5.80;;;3.45;;
8339;SDS011;4207;49.314;7.162;2024-02-21T01:12:07;5.72;;;2.63;;
8339;SDS011;4207;49.314;7.162;2024-02-21T01:14:35;4.82;;;2.75;;
8339;SDS011;4207;49.314;7.162;2024-02-21T01:17:04;7.47;;;2.92;;
8339;SDS011;4207;49.314;7.162;2024-02-21T01:19:32;6.00;;;2.67;;
8339;SDS011;4207;49.314;7.162;2024-02-21T01:22:00;4.05;;;1.58;;
8339;SDS011;4207;49.314;7.162;2024-02-21T01:24:28;5.80;;;2.88;;
8339;SDS011;4207;49.314;7.162;2024-02-21T01:26:56;6.10;;;2.85;;
8339;SDS011;4207;49.314;7.162;2024-02-21T01:29:23;6.97;;;2.83;;
8339;SDS011;4207;49.314;7.162;2024-02-21T01:31:51;4.93;;;2.75;;
8339;SDS011;4207;49.314;7.162;2024-02-21T01:34:20;5.70;;;2.53;;
8339;SDS011;4207;49.314;7.162;2024-02-21T01:36:48;3.72;;;1.95;;
8339;SDS011;4207;49.314;7.162;2024-02-21T01:39:16;5.28;;;2.33;;
8339;SDS011;4207;49.314;7.162;2024-02-21T01:41:44;4.65;;;2.38;;
8339;SDS011;4207;49.314;7.162;2024-02-21T01:44:12;6.15;;;2.78;;
8339;SDS011;4207;49.314;7.162;2024-02-21T01:46:39;4.18;;;2.15;;
8339;SDS011;4207;49.314;7.162;2024-02-21T01:49:07;5.60;;;2.45;;
8339;SDS011;4207;49.314;7.162;2024-02-21T01:51:37;4.85;;;2.67;;
8339;SDS011;4207;49.314;7.162;2024-02-21T01:54:05;5.65;;;2.70;;
8339;SDS011;4207;49.314;7.162;2024-02-21T01:56:33;6.85;;;2.63;;
8339;SDS011;4207;49.314;7.162;2024-02-21T01:59:01;5.38;;;2.47;;
8339;SDS011;4207;49.314;7.162;2024-02-21T02:01:29;3.95;;;2.10;;
8339;SDS011;4207;49.314;7.162;2024-02-21T02:03:57;5.43;;;2.20;;
8339;SDS011;4207;49.314;7.162;2024-02-21T02:06:26;4.75;;;2.60;;
8339;SDS011;4207;49.314;7.162;2024-02-21T02:08:55;7.25;;;2.97;;
8339;SDS011;4207;49.314;7.162;2024-02-21T02:11:24;6.63;;;2.58;;
8339;SDS011;4207;49.314;7.162;2024-02-21T02:13:52;5.90;;;2.20;;
8339;SDS011;4207;49.314;7.162;2024-02-21T02:16:19;3.63;;;1.98;;
8339;SDS011;4207;49.314;7.162;2024-02-21T02:18:47;5.50;;;2.13;;
8339;SDS011;4207;49.314;7.162;2024-02-21T02:21:16;6.43;;;2.33;;
8339;SDS011;4207;49.314;7.162;2024-02-21T02:23:52;4.50;;;2.35;;
8339;SDS011;4207;49.314;7.162;2024-02-21T02:26:21;4.05;;;2.05;;
8339;SDS011;4207;49.314;7.162;2024-02-21T02:28:48;4.13;;;2.42;;
8339;SDS011;4207;49.314;7.162;2024-02-21T02:31:17;4.32;;;2.15;;
8339;SDS011;4207;49.314;7.162;2024-02-21T02:33:44;6.72;;;2.10;;
8339;SDS011;4207;49.314;7.162;2024-02-21T02:36:12;6.35;;;2.67;;
8339;SDS011;4207;49.314;7.162;2024-02-21T02:38:40;4.70;;;2.10;;
8339;SDS011;4207;49.314;7.162;2024-02-21T02:41:09;5.88;;;2.42;;
8339;SDS011;4207;49.314;7.162;2024-02-21T02:43:37;3.70;;;2.08;;
8339;SDS011;4207;49.314;7.162;2024-02-21T02:46:05;4.57;;;1.85;;
8339;SDS011;4207;49.314;7.162;2024-02-21T02:48:33;5.25;;;2.03;;
8339;SDS011;4207;49.314;7.162;2024-02-21T02:51:01;5.32;;;2.63;;
8339;SDS011;4207;49.314;7.162;2024-02-21T02:53:28;5.63;;;2.35;;
8339;SDS011;4207;49.314;7.162;2024-02-21T02:55:56;5.70;;;2.15;;
8339;SDS011;4207;49.314;7.162;2024-02-21T02:58:25;3.92;;;2.13;;
8339;SDS011;4207;49.314;7.162;2024-02-21T03:00:53;5.38;;;2.67;;
8339;SDS011;4207;49.314;7.162;2024-02-21T03:03:21;4.65;;;1.67;;
8339;SDS011;4207;49.314;7.162;2024-02-21T03:05:49;4.88;;;2.00;;
8339;SDS011;4207;49.314;7.162;2024-02-21T03:08:17;3.90;;;1.98;;
8339;SDS011;4207;49.314;7.162;2024-02-21T03:10:44;3.63;;;2.03;;
8339;SDS011;4207;49.314;7.162;2024-02-21T03:13:12;4.53;;;2.22;;
8339;SDS011;4207;49.314;7.162;2024-02-21T03:15:41;4.18;;;1.98;;
8339;SDS011;4207;49.314;7.162;2024-02-21T03:18:09;4.90;;;2.03;;
8339;SDS011;4207;49.314;7.162;2024-02-21T03:20:37;3.78;;;2.40;;
8339;SDS011;4207;49.314;7.162;2024-02-21T03:23:05;3.30;;;2.15;;
8339;SDS011;4207;49.314;7.162;2024-02-21T03:25:32;5.72;;;2.42;;
8339;SDS011;4207;49.314;7.162;2024-02-21T03:28:00;3.15;;;1.73;;
8339;SDS011;4207;49.314;7.162;2024-02-21T03:30:28;4.30;;;2.10;;
8339;SDS011;4207;49.314;7.162;2024-02-21T03:32:57;6.32;;;1.98;;
8339;SDS011;4207;49.314;7.162;2024-02-21T03:35:25;3.13;;;1.55;;
8339;SDS011;4207;49.314;7.162;2024-02-21T03:37:53;4.82;;;2.55;;
8339;SDS011;4207;49.314;7.162;2024-02-21T03:40:22;4.32;;;2.10;;
8339;SDS011;4207;49.314;7.162;2024-02-21T03:42:50;2.80;;;1.98;;
8339;SDS011;4207;49.314;7.162;2024-02-21T03:45:18;3.83;;;1.75;;
8339;SDS011;4207;49.314;7.162;2024-02-21T03:47:45;4.30;;;1.75;;
8339;SDS011;4207;49.314;7.162;2024-02-21T03:50:15;4.88;;;1.98;;
8339;SDS011;4207;49.314;7.162;2024-02-21T03:52:43;3.63;;;1.67;;
8339;SDS011;4207;49.314;7.162;2024-02-21T03:55:10;3.53;;;1.40;;
8339;SDS011;4207;49.314;7.162;2024-02-21T03:57:38;3.85;;;1.80;;
8339;SDS011;4207;49.314;7.162;2024-02-21T04:00:06;2.83;;;1.55;;
8339;SDS011;4207;49.314;7.162;2024-02-21T04:02:38;4.22;;;1.98;;
8339;SDS011;4207;49.314;7.162;2024-02-21T04:05:06;4.45;;;2.35;;
8339;SDS011;4207;49.314;7.162;2024-02-21T04:07:39;4.53;;;1.73;;
8339;SDS011;4207;49.314;7.162;2024-02-21T04:10:07;4.10;;;1.73;;
8339;SDS011;4207;49.314;7.162;2024-02-21T04:12:35;6.13;;;2.20;;
8339;SDS011;4207;49.314;7.162;2024-02-21T04:15:04;2.67;;;1.83;;
8339;SDS011;4207;49.314;7.162;2024-02-21T04:17:33;3.72;;;1.80;;
8339;SDS011;4207;49.314;7.162;2024-02-21T04:20:04;4.03;;;2.17;;
8339;SDS011;4207;49.314;7.162;2024-02-21T04:22:34;7.03;;;2.17;;
8339;SDS011;4207;49.314;7.162;2024-02-21T04:25:03;3.83;;;1.63;;
8339;SDS011;4207;49.314;7.162;2024-02-21T04:27:32;3.22;;;1.55;;
8339;SDS011;4207;49.314;7.162;2024-02-21T04:30:00;4.25;;;1.67;;
8339;SDS011;4207;49.314;7.162;2024-02-21T04:32:27;2.40;;;1.38;;
8339;SDS011;4207;49.314;7.162;2024-02-21T04:34:55;2.45;;;1.40;;
8339;SDS011;4207;49.314;7.162;2024-02-21T04:37:23;3.47;;;1.48;;
8339;SDS011;4207;49.314;7.162;2024-02-21T04:39:51;1.35;;;1.15;;
8339;SDS011;4207;49.314;7.162;2024-02-21T04:42:20;9.18;;;1.73;;
8339;SDS011;4207;49.314;7.162;2024-02-21T04:44:48;3.95;;;1.85;;
8339;SDS011;4207;49.314;7.162;2024-02-21T04:47:16;3.45;;;1.92;;
8339;SDS011;4207;49.314;7.162;2024-02-21T04:49:44;3.70;;;1.92;;
8339;SDS011;4207;49.314;7.162;2024-02-21T04:52:12;6.25;;;1.63;;
8339;SDS011;4207;49.314;7.162;2024-02-21T04:54:40;2.20;;;1.30;;
8339;SDS011;4207;49.314;7.162;2024-02-21T04:57:08;2.67;;;1.63;;
8339;SDS011;4207;49.314;7.162;2024-02-21T04:59:38;3.70;;;1.35;;
8339;SDS011;4207;49.314;7.162;2024-02-21T05:02:05;2.92;;;1.52;;
8339;SDS011;4207;49.314;7.162;2024-02-21T05:04:34;4.43;;;1.50;;
8339;SDS011;4207;49.314;7.162;2024-02-21T05:07:04;2.05;;;1.30;;
8339;SDS011;4207;49.314;7.162;2024-02-21T05:09:32;3.78;;;1.17;;
8339;SDS011;4207;49.314;7.162;2024-02-21T05:12:00;2.30;;;1.08;;
8339;SDS011;4207;49.314;7.162;2024-02-21T05:14:28;3.75;;;2.08;;
8339;SDS011;4207;49.314;7.162;2024-02-21T05:16:57;3.80;;;2.00;;
8339;SDS011;4207;49.314;7.162;2024-02-21T05:19:25;3.10;;;1.42;;
8339;SDS011;4207;49.314;7.162;2024-02-21T05:21:52;3.03;;;1.50;;
8339;SDS011;4207;49.314;7.162;2024-02-21T05:24:20;3.05;;;1.52;;
8339;SDS011;4207;49.314;7.162;2024-02-21T05:26:48;2.75;;;1.42;;
8339;SDS011;4207;49.314;7.162;2024-02-21T05:29:16;7.00;;;1.60;;
8339;SDS011;4207;49.314;7.162;2024-02-21T05:31:54;1.52;;;1.13;;
8339;SDS011;4207;49.314;7.162;2024-02-21T05:34:24;2.05;;;1.20;;
8339;SDS011;4207;49.314;7.162;2024-02-21T05:36:53;4.30;;;2.10;;
8339;SDS011;4207;49.314;7.162;2024-02-21T05:39:21;2.38;;;1.30;;
8339;SDS011;4207;49.314;7.162;2024-02-21T05:41:49;2.55;;;1.35;;
8339;SDS011;4207;49.314;7.162;2024-02-21T05:44:18;5.22;;;1.60;;
8339;SDS011;4207;49.314;7.162;2024-02-21T05:46:47;2.17;;;1.30;;
8339;SDS011;4207;49.314;7.162;2024-02-21T05:49:17;1.83;;;1.40;;
8339;SDS011;4207;49.314;7.162;2024-02-21T05:51:45;4.95;;;1.73;;
8339;SDS011;4207;49.314;7.162;2024-02-21T05:54:13;1.88;;;1.40;;
8339;SDS011;4207;49.314;7.162;2024-02-21T05:56:43;1.85;;;1.20;;
8339;SDS011;4207;49.314;7.162;2024-02-21T05:59:11;2.65;;;1.23;;
8339;SDS011;4207;49.314;7.162;2024-02-21T06:01:39;1.90;;;1.10;;
8339;SDS011;4207;49.314;7.162;2024-02-21T06:04:07;2.83;;;1.17;;
8339;SDS011;4207;49.314;7.162;2024-02-21T06:06:36;1.73;;;0.80;;
8339;SDS011;4207;49.314;7.162;2024-02-21T06:09:04;2.22;;;1.48;;
8339;SDS011;4207;49.314;7.162;2024-02-21T06:11:32;2.50;;;1.33;;
8339;SDS011;4207;49.314;7.162;2024-02-21T06:14:01;2.40;;;1.20;;
8339;SDS011;4207;49.314;7.162;2024-02-21T06:16:29;3.17;;;1.27;;
8339;SDS011;4207;49.314;7.162;2024-02-21T06:18:57;2.38;;;1.13;;
8339;SDS011;4207;49.314;7.162;2024-02-21T06:21:28;4.25;;;1.38;;
8339;SDS011;4207;49.314;7.162;2024-02-21T06:23:57;1.92;;;1.15;;
8339;SDS011;4207;49.314;7.162;2024-02-21T06:26:25;2.10;;;1.08;;
8339;SDS011;4207;49.314;7.162;2024-02-21T06:28:53;4.15;;;1.75;;
8339;SDS011;4207;49.314;7.162;2024-02-21T06:31:21;3.45;;;1.50;;
8339;SDS011;4207;49.314;7.162;2024-02-21T06:33:49;2.10;;;1.27;;
8339;SDS011;4207;49.314;7.162;2024-02-21T06:36:17;1.73;;;0.80;;
8339;SDS011;4207;49.314;7.162;2024-02-21T06:38:44;1.80;;;0.95;;
8339;SDS011;4207;49.314;7.162;2024-02-21T06:41:17;3.38;;;1.00;;
8339;SDS011;4207;49.314;7.162;2024-02-21T06:43:45;1.80;;;1.00;;
8339;SDS011;4207;49.314;7.162;2024-02-21T06:46:22;3.17;;;1.15;;
8339;SDS011;4207;49.314;7.162;2024-02-21T06:48:50;2.25;;;0.82;;
8339;SDS011;4207;49.314;7.162;2024-02-21T06:51:18;2.15;;;1.00;;
8339;SDS011;4207;49.314;7.162;2024-02-21T06:53:46;2.58;;;1.40;;
8339;SDS011;4207;49.314;7.162;2024-02-21T06:56:14;4.78;;;1.50;;
8339;SDS011;4207;49.314;7.162;2024-02-21T06:58:43;1.60;;;1.10;;
8339;SDS011;4207;49.314;7.162;2024-02-21T07:01:11;3.80;;;1.40;;
8339;SDS011;4207;49.314;7.162;2024-02-21T07:03:38;5.57;;;1.23;;
8339;SDS011;4207;49.314;7.162;2024-02-21T07:06:06;1.75;;;1.42;;
8339;SDS011;4207;49.314;7.162;2024-02-21T07:08:34;1.98;;;1.20;;
8339;SDS011;4207;49.314;7.162;2024-02-21T07:11:02;2.88;;;1.17;;
8339;SDS011;4207;49.314;7.162;2024-02-21T07:13:30;2.17;;;1.20;;
8339;SDS011;4207;49.314;7.162;2024-02-21T07:15:59;2.65;;;1.35;;
8339;SDS011;4207;49.314;7.162;2024-02-21T07:18:27;3.28;;;1.30;;
8339;SDS011;4207;49.314;7.162;2024-02-21T07:20:55;1.80;;;1.10;;
8339;SDS011;4207;49.314;7.162;2024-02-21T07:23:23;2.00;;;0.85;;
8339;SDS011;4207;49.314;7.162;2024-02-21T07:25:51;1.90;;;0.80;;
8339;SDS011;4207;49.314;7.162;2024-02-21T07:28:18;1.85;;;0.95;;
8339;SDS011;4207;49.314;7.162;2024-02-21T07:30:46;1.65;;;0.85;;
8339;SDS011;4207;49.314;7.162;2024-02-21T07:33:16;2.67;;;1.13;;
8339;SDS011;4207;49.314;7.162;2024-02-21T07:35:44;2.13;;;0.90;;
8339;SDS011;4207;49.314;7.162;2024-02-21T07:38:12;2.38;;;1.17;;
8339;SDS011;4207;49.314;7.162;2024-02-21T07:40:40;0.98;;;0.75;;
8339;SDS011;4207;49.314;7.162;2024-02-21T07:43:09;1.88;;;1.50;;
8339;SDS011;4207;49.314;7.162;2024-02-21T07:45:37;0.95;;;0.85;;
8339;SDS011;4207;49.314;7.162;2024-02-21T07:51:01;1.52;;;1.25;;
8339;SDS011;4207;49.314;7.162;2024-02-21T07:53:29;1.80;;;1.00;;
8339;SDS011;4207;49.314;7.162;2024-02-21T07:55:57;1.23;;;0.82;;
8339;SDS011;4207;49.314;7.162;2024-02-21T07:58:25;2.00;;;1.20;;
8339;SDS011;4207;49.314;7.162;2024-02-21T08:00:52;2.53;;;1.13;;
8339;SDS011;4207;49.314;7.162;2024-02-21T08:03:20;1.95;;;1.42;;
8339;SDS011;4207;49.314;7.162;2024-02-21T08:05:50;2.40;;;1.30;;
8339;SDS011;4207;49.314;7.162;2024-02-21T08:08:18;2.28;;;0.93;;
8339;SDS011;4207;49.314;7.162;2024-02-21T08:10:48;2.40;;;1.00;;
8339;SDS011;4207;49.314;7.162;2024-02-21T08:13:16;2.45;;;0.60;;
8339;SDS011;4207;49.314;7.162;2024-02-21T08:15:44;1.33;;;0.80;;
8339;SDS011;4207;49.314;7.162;2024-02-21T08:18:12;2.03;;;0.80;;
8339;SDS011;4207;49.314;7.162;2024-02-21T08:20:40;2.58;;;1.13;;
8339;SDS011;4207;49.314;7.162;2024-02-21T08:23:09;1.23;;;1.13;;
8339;SDS011;4207;49.314;7.162;2024-02-21T08:25:37;1.25;;;0.80;;
8339;SDS011;4207;49.314;7.162;2024-02-21T08:28:05;2.53;;;1.23;;
8339;SDS011;4207;49.314;7.162;2024-02-21T08:30:33;2.58;;;1.50;;
8339;SDS011;4207;49.314;7.162;2024-02-21T08:33:00;1.13;;;0.93;;
8339;SDS011;4207;49.314;7.162;2024-02-21T08:35:30;2.10;;;1.33;;
8339;SDS011;4207;49.314;7.162;2024-02-21T08:37:57;1.58;;;0.75;;
8339;SDS011;4207;49.314;7.162;2024-02-21T08:40:26;2.25;;;1.27;;
8339;SDS011;4207;49.314;7.162;2024-02-21T08:42:54;2.60;;;1.00;;
8339;SDS011;4207;49.314;7.162;2024-02-21T08:45:22;3.15;;;1.83;;
8339;SDS011;4207;49.314;7.162;2024-02-21T08:47:50;1.85;;;0.80;;
8339;SDS011;4207;49.314;7.162;2024-02-21T08:50:18;1.83;;;1.13;;
8339;SDS011;4207;49.314;7.162;2024-02-21T08:52:54;1.85;;;1.30;;
8339;SDS011;4207;49.314;7.162;2024-02-21T08:55:22;2.10;;;1.13;;
8339;SDS011;4207;49.314;7.162;2024-02-21T08:57:51;2.83;;;1.15;;
8339;SDS011;4207;49.314;7.162;2024-02-21T09:00:19;2.30;;;1.23;;
8339;SDS011;4207;49.314;7.162;2024-02-21T09:02:53;1.02;;;0.75;;
8339;SDS011;4207;49.314;7.162;2024-02-21T09:05:22;1.70;;;1.05;;
8339;SDS011;4207;49.314;7.162;2024-02-21T09:07:51;1.92;;;0.50;;
8339;SDS011;4207;49.314;7.162;2024-02-21T09:10:19;2.72;;;1.20;;
8339;SDS011;4207;49.314;7.162;2024-02-21T09:12:47;1.85;;;1.15;;
8339;SDS011;4207;49.314;7.162;2024-02-21T09:15:17;1.23;;;0.80;;
8339;SDS011;4207;49.314;7.162;2024-02-21T09:17:45;2.28;;;0.90;;
8339;SDS011;4207;49.314;7.162;2024-02-21T09:20:13;2.20;;;0.60;;
8339;SDS011;4207;49.314;7.162;2024-02-21T09:22:43;1.88;;;0.98;;
8339;SDS011;4207;49.314;7.162;2024-02-21T09:25:11;3.50;;;1.17;;
8339;SDS011;4207;49.314;7.162;2024-02-21T09:27:38;1.88;;;0.80;;
8339;SDS011;4207;49.314;7.162;2024-02-21T09:30:06;0.98;;;0.75;;
8339;SDS011;4207;49.314;7.162;2024-02-21T09:32:37;1.33;;;0.80;;
8339;SDS011;4207;49.314;7.162;2024-02-21T09:35:05;1.23;;;0.60;;
8339;SDS011;4207;49.314;7.162;2024-02-21T09:37:34;1.48;;;1.08;;
8339;SDS011;4207;49.314;7.162;2024-02-21T09:40:02;1.75;;;0.65;;
8339;SDS011;4207;49.314;7.162;2024-02-21T09:42:31;1.00;;;0.70;;
8339;SDS011;4207;49.314;7.162;2024-02-21T09:45:07;1.75;;;0.77;;
8339;SDS011;4207;49.314;7.162;2024-02-21T09:47:42;3.75;;;1.00;;
8339;SDS011;4207;49.314;7.162;2024-02-21T09:50:13;3.92;;;1.25;;
8339;SDS011;4207;49.314;7.162;2024-02-21T09:52:42;2.60;;;1.05;;
8339;SDS011;4207;49.314;7.162;2024-02-21T09:55:10;2.22;;;1.20;;
8339;SDS011;4207;49.314;7.162;2024-02-21T09:57:40;0.60;;;0.45;;
8339;SDS011;4207;49.314;7.162;2024-02-21T10:00:08;0.88;;;0.73;;
8339;SDS011;4207;49.314;7.162;2024-02-21T10:02:41;1.98;;;1.00;;
8339;SDS011;4207;49.314;7.162;2024-02-21T10:05:09;2.28;;;1.10;;
8339;SDS011;4207;49.314;7.162;2024-02-21T10:07:37;1.02;;;0.63;;
8339;SDS011;4207;49.314;7.162;2024-02-21T10:10:06;1.20;;;0.77;;
8339;SDS011;4207;49.314;7.162;2024-02-21T10:12:35;2.42;;;1.10;;
8339;SDS011;4207;49.314;7.162;2024-02-21T10:15:03;2.38;;;0.77;;
8339;SDS011;4207;49.314;7.162;2024-02-21T10:17:31;1.10;;;0.93;;
8339;SDS011;4207;49.314;7.162;2024-02-21T10:20:08;0.98;;;0.57;;
8339;SDS011;4207;49.314;7.162;2024-02-21T10:22:37;1.92;;;1.23;;
8339;SDS011;4207;49.314;7.162;2024-02-21T10:25:07;2.83;;;0.65;;
8339;SDS011;4207;49.314;7.162;2024-02-21T10:27:34;1.20;;;0.57;;
8339;SDS011;4207;49.314;7.162;2024-02-21T10:30:04;0.73;;;0.60;;
8339;SDS011;4207;49.314;7.162;2024-02-21T10:32:37;1.30;;;0.60;;
8339;SDS011;4207;49.314;7.162;2024-02-21T10:35:05;1.48;;;0.82;;
8339;SDS011;4207;49.314;7.162;2024-02-21T10:37:34;0.98;;;0.70;;
8339;SDS011;4207;49.314;7.162;2024-02-21T10:40:02;1.55;;;0.75;;
8339;SDS011;4207;49.314;7.162;2024-02-21T10:42:31;1.23;;;0.63;;
8339;SDS011;4207;49.314;7.162;2024-02-21T10:45:02;1.05;;;0.52;;
8339;SDS011;4207;49.314;7.162;2024-02-21T10:47:31;1.58;;;0.70;;
8339;SDS011;4207;49.314;7.162;2024-02-21T10:50:02;2.08;;;0.90;;
8339;SDS011;4207;49.314;7.162;2024-02-21T10:52:32;0.50;;;0.50;;
8339;SDS011;4207;49.314;7.162;2024-02-21T10:55:09;1.27;;;0.98;;
8339;SDS011;4207;49.314;7.162;2024-02-21T10:57:38;1.75;;;0.70;;
8339;SDS011;4207;49.314;7.162;2024-02-21T11:00:07;2.70;;;1.30;;
8339;SDS011;4207;49.314;7.162;2024-02-21T11:02:38;3.65;;;1.02;;
8339;SDS011;4207;49.314;7.162;2024-02-21T11:05:07;1.63;;;0.80;;
8339;SDS011;4207;49.314;7.162;2024-02-21T11:07:36;1.60;;;0.65;;
8339;SDS011;4207;49.314;7.162;2024-02-21T11:10:19;0.70;;;0.50;;
8339;SDS011;4207;49.314;7.162;2024-02-21T11:12:48;1.90;;;0.77;;
8339;SDS011;4207;49.314;7.162;2024-02-21T11:15:16;1.13;;;0.50;;
8339;SDS011;4207;49.314;7.162;2024-02-21T11:17:53;1.40;;;0.70;;
8339;SDS011;4207;49.314;7.162;2024-02-21T11:23:03;1.52;;;0.55;;
8339;SDS011;4207;49.314;7.162;2024-02-21T11:25:31;0.63;;;0.20;;
8339;SDS011;4207;49.314;7.162;2024-02-21T11:28:01;0.88;;;0.60;;
8339;SDS011;4207;49.314;7.162;2024-02-21T11:30:30;0.40;;;0.40;;
8339;SDS011;4207;49.314;7.162;2024-02-21T11:33:02;3.08;;;0.55;;
8339;SDS011;4207;49.314;7.162;2024-02-21T11:35:33;1.63;;;0.80;;
8339;SDS011;4207;49.314;7.162;2024-02-21T11:38:13;0.47;;;0.40;;
8339;SDS011;4207;49.314;7.162;2024-02-21T11:40:44;1.80;;;0.90;;
8339;SDS011;4207;49.314;7.162;2024-02-21T11:43:13;2.17;;;1.02;;
8339;SDS011;4207;49.314;7.162;2024-02-21T11:45:42;0.50;;;0.50;;
8339;SDS011;4207;49.314;7.162;2024-02-21T11:48:10;1.80;;;1.00;;
8339;SDS011;4207;49.314;7.162;2024-02-21T11:50:38;1.85;;;0.65;;
8339;SDS011;4207;49.314;7.162;2024-02-21T11:53:06;0.68;;;0.68;;
8339;SDS011;4207;49.314;7.162;2024-02-21T11:55:35;0.82;;;0.70;;
8339;SDS011;4207;49.314;7.162;2024-02-21T11:58:03;0.50;;;0.30;;
8339;SDS011;4207;49.314;7.162;2024-02-21T12:00:31;1.92;;;0.50;;
8339;SDS011;4207;49.314;7.162;2024-02-21T12:02:59;1.00;;;0.57;;
8339;SDS011;4207;49.314;7.162;2024-02-21T12:05:29;1.20;;;0.50;;
8339;SDS011;4207;49.314;7.162;2024-02-21T12:07:57;2.33;;;0.90;;
8339;SDS011;4207;49.314;7.162;2024-02-21T12:10:26;0.75;;;0.47;;
8339;SDS011;4207;49.314;7.162;2024-02-21T12:13:04;0.73;;;0.73;;
8339;SDS011;4207;49.314;7.162;2024-02-21T12:15:32;0.70;;;0.70;;
8339;SDS011;4207;49.314;7.162;2024-02-21T12:18:00;0.82;;;0.40;;
8339;SDS011;4207;49.314;7.162;2024-02-21T12:20:28;1.65;;;0.55;;
8339;SDS011;4207;49.314;7.162;2024-02-21T12:22:59;1.05;;;0.55;;
8339;SDS011;4207;49.314;7.162;2024-02-21T12:25:28;2.60;;;0.90;;
8339;SDS011;4207;49.314;7.162;2024-02-21T12:27:57;1.02;;;0.50;;
8339;SDS011;4207;49.314;7.162;2024-02-21T12:30:26;0.43;;;0.43;;
8339;SDS011;4207;49.314;7.162;2024-02-21T12:32:54;0.95;;;0.50;;
8339;SDS011;4207;49.314;7.162;2024-02-21T12:35:24;2.30;;;1.10;;
8339;SDS011;4207;49.314;7.162;2024-02-21T12:37:52;0.93;;;0.60;;
8339;SDS011;4207;49.314;7.162;2024-02-21T12:40:20;0.65;;;0.60;;
8339;SDS011;4207;49.314;7.162;2024-02-21T12:42:48;0.43;;;0.22;;
8339;SDS011;4207;49.314;7.162;2024-02-21T12:45:18;1.30;;;0.40;;
8339;SDS011;4207;49.314;7.162;2024-02-21T12:47:46;0.57;;;0.32;;
8339;SDS011;4207;49.314;7.162;2024-02-21T12:50:14;0.88;;;0.52;;
8339;SDS011;4207;49.314;7.162;2024-02-21T12:52:42;0.93;;;0.50;;
8339;SDS011;4207;49.314;7.162;2024-02-21T12:55:10;1.73;;;0.70;;
8339;SDS011;4207;49.314;7.162;2024-02-21T12:57:39;1.05;;;0.47;;
8339;SDS011;4207;49.314;7.162;2024-02-21T13:00:08;0.82;;;0.40;;
8339;SDS011;4207;49.314;7.162;2024-02-21T13:02:38;0.40;;;0.40;;
8339;SDS011;4207;49.314;7.162;2024-02-21T13:05:06;1.73;;;0.50;;
8339;SDS011;4207;49.314;7.162;2024-02-21T13:07:34;0.50;;;0.50;;
8339;SDS011;4207;49.314;7.162;2024-02-21T13:10:02;1.45;;;0.50;;
8339;SDS011;4207;49.314;7.162;2024-02-21T13:12:31;0.77;;;0.60;;
8339;SDS011;4207;49.314;7.162;2024-02-21T13:14:59;1.20;;;0.50;;
8339;SDS011;4207;49.314;7.162;2024-02-21T13:17:27;0.70;;;0.50;;
8339;SDS011;4207;49.314;7.162;2024-02-21T13:22:27;0.55;;;0.47;;
8339;SDS011;4207;49.314;7.162;2024-02-21T13:24:55;1.55;;;0.77;;
8339;SDS011;4207;49.314;7.162;2024-02-21T13:27:24;0.38;;;0.30;;
8339;SDS011;4207;49.314;7.162;2024-02-21T13:29:52;1.52;;;0.60;;
8339;SDS011;4207;49.314;7.162;2024-02-21T13:32:20;1.42;;;1.05;;
8339;SDS011;4207;49.314;7.162;2024-02-21T13:34:48;0.60;;;0.40;;
8339;SDS011;4207;49.314;7.162;2024-02-21T13:37:19;1.52;;;0.50;;
8339;SDS011;4207;49.314;7.162;2024-02-21T13:39:48;1.35;;;0.70;;
8339;SDS011;4207;49.314;7.162;2024-02-21T13:42:15;1.10;;;0.77;;
8339;SDS011;4207;49.314;7.162;2024-02-21T13:44:43;1.67;;;0.73;;
8339;SDS011;4207;49.314;7.162;2024-02-21T13:47:12;1.08;;;0.47;;
8339;SDS011;4207;49.314;7.162;2024-02-21T13:49:41;0.55;;;0.55;;
8339;SDS011;4207;49.314;7.162;2024-02-21T13:52:09;0.52;;;0.30;;
8339;SDS011;4207;49.314;7.162;2024-02-21T13:54:38;1.58;;;0.50;;
8339;SDS011;4207;49.314;7.162;2024-02-21T13:57:06;1.63;;;0.55;;
8339;SDS011;4207;49.314;7.162;2024-02-21T13:59:34;0.63;;;0.45;;
8339;SDS011;4207;49.314;7.162;2024-02-21T14:02:02;0.47;;;0.43;;
8339;SDS011;4207;49.314;7.162;2024-02-21T14:04:30;2.80;;;0.50;;
8339;SDS011;4207;49.314;7.162;2024-02-21T14:06:58;0.43;;;0.28;;
8339;SDS011;4207;49.314;7.162;2024-02-21T14:09:27;0.85;;;0.52;;
8339;SDS011;4207;49.314;7.162;2024-02-21T14:11:57;1.70;;;0.50;;
8339;SDS011;4207;49.314;7.162;2024-02-21T14:14:25;0.57;;;0.38;;
8339;SDS011;4207;49.314;7.162;2024-02-21T14:16:53;0.40;;;0.35;;
8339;SDS011;4207;49.314;7.162;2024-02-21T14:19:22;0.73;;;0.25;;
8339;SDS011;4207;49.314;7.162;2024-02-21T14:21:50;0.30;;;0.28;;
8339;SDS011;4207;49.314;7.162;2024-02-21T14:24:19;0.22;;;0.20;;
8339;SDS011;4207;49.314;7.162;2024-02-21T14:26:47;0.68;;;0.38;;
8339;SDS011;4207;49.314;7.162;2024-02-21T14:29:16;0.65;;;0.40;;
8339;SDS011;4207;49.314;7.162;2024-02-21T14:31:44;0.75;;;0.45;;
8339;SDS011;4207;49.314;7.162;2024-02-21T14:34:12;0.50;;;0.30;;
8339;SDS011;4207;49.314;7.162;2024-02-21T14:36:40;1.55;;;0.40;;
8339;SDS011;4207;49.314;7.162;2024-02-21T14:39:08;0.43;;;0.35;;
8339;SDS011;4207;49.314;7.162;2024-02-21T14:41:35;0.65;;;0.50;;
8339;SDS011;4207;49.314;7.162;2024-02-21T14:44:03;0.55;;;0.40;;
8339;SDS011;4207;49.314;7.162;2024-02-21T14:46:33;0.98;;;0.30;;
8339;SDS011;4207;49.314;7.162;2024-02-21T14:49:01;0.13;;;0.10;;
8339;SDS011;4207;49.314;7.162;2024-02-21T14:51:29;0.32;;;0.32;;
8339;SDS011;4207;49.314;7.162;2024-02-21T14:53:57;0.30;;;0.30;;
8339;SDS011;4207;49.314;7.162;2024-02-21T14:56:25;2.08;;;0.40;;
8339;SDS011;4207;49.314;7.162;2024-02-21T14:58:53;0.50;;;0.10;;
8339;SDS011;4207;49.314;7.162;2024-02-21T15:01:26;0.52;;;0.20;;
8339;SDS011;4207;49.314;7.162;2024-02-21T15:03:55;0.52;;;0.32;;
8339;SDS011;4207;49.314;7.162;2024-02-21T15:06:23;0.50;;;0.20;;
8339;SDS011;4207;49.314;7.162;2024-02-21T15:08:50;0.40;;;0.40;;
8339;SDS011;4207;49.314;7.162;2024-02-21T15:11:18;0.68;;;0.63;;
8339;SDS011;4207;49.314;7.162;2024-02-21T15:13:46;1.02;;;0.38;;
8339;SDS011;4207;49.314;7.162;2024-02-21T15:16:14;0.65;;;0.30;;
8339;SDS011;4207;49.314;7.162;2024-02-21T15:18:42;0.22;;;0.22;;
8339;SDS011;4207;49.314;7.162;2024-02-21T15:21:12;0.30;;;0.20;;
8339;SDS011;4207;49.314;7.162;2024-02-21T15:23:41;0.52;;;0.43;;
8339;SDS011;4207;49.314;7.162;2024-02-21T15:26:10;0.32;;;0.28;;
8339;SDS011;4207;49.314;7.162;2024-02-21T15:28:38;0.65;;;0.57;;
8339;SDS011;4207;49.314;7.162;2024-02-21T15:31:06;1.50;;;0.47;;